sensor_id;sensor_type;location;lat;lon;timestamp;P1;durP1;ratioP1;P2;durP2;ratioP2
3465;SDS011;1747;48.884;9.160;2023-12-29T00:00:10;2.45;;;1.65;;
3465;SDS011;1747;48.884;9.160;2023-12-29T00:02:37;2.35;;;1.75;;
3465;SDS011;1747;48.884;9.160;2023-12-29T00:05:06;2.75;;;1.92;;
3465;SDS011;1747;48.884;9.160;2023-12-29T00:07:33;1.95;;;1.70;;
3465;SDS011;1747;48.884;9.160;2023-12-29T00:10:00;3.17;;;1.67;;
3465;SDS011;1747;48.884;9.160;2023-12-29T00:12:27;2.30;;;1.90;;
3465;SDS011;1747;48.884;9.160;2023-12-29T00:14:54;2.40;;;2.08;;
3465;SDS011;1747;48.884;9.160;2023-12-29T00:17:20;2.80;;;2.10;;
3465;SDS011;1747;48.884;9.160;2023-12-29T00:19:47;3.38;;;2.05;;
3465;SDS011;1747;48.884;9.160;2023-12-29T00:22:15;3.30;;;2.30;;
3465;SDS011;1747;48.884;9.160;2023-12-29T00:24:42;3.85;;;2.38;;
3465;SDS011;1747;48.884;9.160;2023-12-29T00:27:08;2.63;;;2.13;;
3465;SDS011;1747;48.884;9.160;2023-12-29T00:29:35;2.38;;;2.03;;
3465;SDS011;1747;48.884;9.160;2023-12-29T00:32:02;3.85;;;2.25;;
3465;SDS011;1747;48.884;9.160;2023-12-29T00:34:30;3.70;;;2.10;;
3465;SDS011;1747;48.884;9.160;2023-12-29T00:36:57;3.03;;;2.22;;
3465;SDS011;1747;48.884;9.160;2023-12-29T00:39:25;3.65;;;2.15;;
3465;SDS011;1747;48.884;9.160;2023-12-29T00:41:55;3.65;;;2.25;;
3465;SDS011;1747;48.884;9.160;2023-12-29T00:44:23;3.55;;;2.25;;
3465;SDS011;1747;48.884;9.160;2023-12-29T00:46:50;3.67;;;2.08;;
3465;SDS011;1747;48.884;9.160;2023-12-29T00:49:16;5.32;;;2.53;;
3465;SDS011;1747;48.884;9.160;2023-12-29T00:51:43;3.22;;;2.33;;
3465;SDS011;1747;48.884;9.160;2023-12-29T00:54:10;3.80;;;2.15;;
3465;SDS011;1747;48.884;9.160;2023-12-29T00:56:38;4.05;;;2.53;;
3465;SDS011;1747;48.884;9.160;2023-12-29T00:59:05;3.53;;;2.20;;
3465;SDS011;1747;48.884;9.160;2023-12-29T01:01:33;8.00;;;2.70;;
3465;SDS011;1747;48.884;9.160;2023-12-29T01:04:00;4.00;;;2.25;;
3465;SDS011;1747;48.884;9.160;2023-12-29T01:06:27;2.97;;;2.40;;
3465;SDS011;1747;48.884;9.160;2023-12-29T01:08:53;4.25;;;2.70;;
3465;SDS011;1747;48.884;9.160;2023-12-29T01:11:20;3.92;;;2.40;;
3465;SDS011;1747;48.884;9.160;2023-12-29T01:13:48;3.75;;;2.53;;
3465;SDS011;1747;48.884;9.160;2023-12-29T01:16:15;2.63;;;2.17;;
3465;SDS011;1747;48.884;9.160;2023-12-29T01:18:42;4.78;;;2.58;;
3465;SDS011;1747;48.884;9.160;2023-12-29T01:21:09;4.30;;;2.08;;
3465;SDS011;1747;48.884;9.160;2023-12-29T01:23:36;3.42;;;2.30;;
3465;SDS011;1747;48.884;9.160;2023-12-29T01:26:02;2.80;;;2.20;;
3465;SDS011;1747;48.884;9.160;2023-12-29T01:28:29;4.78;;;2.70;;
3465;SDS011;1747;48.884;9.160;2023-12-29T01:30:58;3.53;;;2.20;;
3465;SDS011;1747;48.884;9.160;2023-12-29T01:33:25;3.15;;;2.33;;
3465;SDS011;1747;48.884;9.160;2023-12-29T01:35:51;4.40;;;2.17;;
3465;SDS011;1747;48.884;9.160;2023-12-29T01:38:18;4.15;;;2.45;;
3465;SDS011;1747;48.884;9.160;2023-12-29T01:40:45;3.33;;;2.25;;
3465;SDS011;1747;48.884;9.160;2023-12-29T01:43:12;3.08;;;2.35;;
3465;SDS011;1747;48.884;9.160;2023-12-29T01:45:39;2.95;;;2.28;;
3465;SDS011;1747;48.884;9.160;2023-12-29T01:48:07;4.30;;;2.30;;
3465;SDS011;1747;48.884;9.160;2023-12-29T01:50:34;2.55;;;2.00;;
3465;SDS011;1747;48.884;9.160;2023-12-29T01:53:01;2.88;;;2.05;;
3465;SDS011;1747;48.884;9.160;2023-12-29T01:55:29;2.78;;;2.20;;
3465;SDS011;1747;48.884;9.160;2023-12-29T01:57:57;2.55;;;2.10;;
3465;SDS011;1747;48.884;9.160;2023-12-29T02:00:24;4.00;;;2.08;;
3465;SDS011;1747;48.884;9.160;2023-12-29T02:02:52;2.70;;;2.00;;
3465;SDS011;1747;48.884;9.160;2023-12-29T02:05:21;3.35;;;2.45;;
3465;SDS011;1747;48.884;9.160;2023-12-29T02:07:51;4.93;;;2.55;;
3465;SDS011;1747;48.884;9.160;2023-12-29T02:10:19;4.20;;;2.38;;
3465;SDS011;1747;48.884;9.160;2023-12-29T02:12:46;3.03;;;2.35;;
3465;SDS011;1747;48.884;9.160;2023-12-29T02:15:14;3.03;;;2.22;;
3465;SDS011;1747;48.884;9.160;2023-12-29T02:17:43;5.18;;;2.67;;
3465;SDS011;1747;48.884;9.160;2023-12-29T02:20:13;3.53;;;2.58;;
3465;SDS011;1747;48.884;9.160;2023-12-29T02:22:42;2.90;;;2.10;;
3465;SDS011;1747;48.884;9.160;2023-12-29T02:25:10;6.53;;;2.38;;
3465;SDS011;1747;48.884;9.160;2023-12-29T02:27:41;3.97;;;2.33;;
3465;SDS011;1747;48.884;9.160;2023-12-29T02:30:20;4.97;;;2.90;;
3465;SDS011;1747;48.884;9.160;2023-12-29T02:32:53;4.00;;;2.42;;
3465;SDS011;1747;48.884;9.160;2023-12-29T02:35:24;3.55;;;2.42;;
3465;SDS011;1747;48.884;9.160;2023-12-29T02:37:53;5.05;;;3.03;;
3465;SDS011;1747;48.884;9.160;2023-12-29T02:40:23;3.47;;;2.60;;
3465;SDS011;1747;48.884;9.160;2023-12-29T02:42:51;3.15;;;2.28;;
3465;SDS011;1747;48.884;9.160;2023-12-29T02:45:18;4.53;;;2.42;;
3465;SDS011;1747;48.884;9.160;2023-12-29T02:47:45;3.55;;;2.70;;
3465;SDS011;1747;48.884;9.160;2023-12-29T02:50:13;6.35;;;2.53;;
3465;SDS011;1747;48.884;9.160;2023-12-29T02:52:40;3.28;;;2.60;;
3465;SDS011;1747;48.884;9.160;2023-12-29T02:55:07;3.00;;;2.45;;
3465;SDS011;1747;48.884;9.160;2023-12-29T02:57:35;3.85;;;2.65;;
3465;SDS011;1747;48.884;9.160;2023-12-29T03:00:02;2.75;;;2.30;;
3465;SDS011;1747;48.884;9.160;2023-12-29T03:02:30;2.95;;;2.35;;
3465;SDS011;1747;48.884;9.160;2023-12-29T03:04:57;4.53;;;2.65;;
3465;SDS011;1747;48.884;9.160;2023-12-29T03:07:24;3.70;;;2.42;;
3465;SDS011;1747;48.884;9.160;2023-12-29T03:09:51;3.30;;;2.55;;
3465;SDS011;1747;48.884;9.160;2023-12-29T03:12:18;3.65;;;2.80;;
3465;SDS011;1747;48.884;9.160;2023-12-29T03:14:46;3.78;;;2.45;;
3465;SDS011;1747;48.884;9.160;2023-12-29T03:17:13;3.45;;;2.65;;
3465;SDS011;1747;48.884;9.160;2023-12-29T03:19:40;4.85;;;2.70;;
3465;SDS011;1747;48.884;9.160;2023-12-29T03:22:06;4.45;;;2.50;;
3465;SDS011;1747;48.884;9.160;2023-12-29T03:24:34;5.25;;;3.03;;
3465;SDS011;1747;48.884;9.160;2023-12-29T03:27:01;2.78;;;2.28;;
3465;SDS011;1747;48.884;9.160;2023-12-29T03:29:27;3.53;;;2.72;;
3465;SDS011;1747;48.884;9.160;2023-12-29T03:31:56;3.85;;;2.58;;
3465;SDS011;1747;48.884;9.160;2023-12-29T03:34:22;3.25;;;2.63;;
3465;SDS011;1747;48.884;9.160;2023-12-29T03:36:49;4.00;;;2.60;;
3465;SDS011;1747;48.884;9.160;2023-12-29T03:39:16;3.90;;;2.72;;
3465;SDS011;1747;48.884;9.160;2023-12-29T03:41:43;4.72;;;2.75;;
3465;SDS011;1747;48.884;9.160;2023-12-29T03:44:10;4.93;;;2.90;;
3465;SDS011;1747;48.884;9.160;2023-12-29T03:46:37;4.75;;;2.95;;
3465;SDS011;1747;48.884;9.160;2023-12-29T03:49:05;4.25;;;3.05;;
3465;SDS011;1747;48.884;9.160;2023-12-29T03:51:32;4.13;;;2.30;;
3465;SDS011;1747;48.884;9.160;2023-12-29T03:53:58;4.63;;;2.83;;
3465;SDS011;1747;48.884;9.160;2023-12-29T03:56:26;3.42;;;2.63;;
3465;SDS011;1747;48.884;9.160;2023-12-29T03:58:52;3.42;;;2.78;;
3465;SDS011;1747;48.884;9.160;2023-12-29T04:01:19;4.15;;;2.63;;
3465;SDS011;1747;48.884;9.160;2023-12-29T04:03:46;4.10;;;2.55;;
3465;SDS011;1747;48.884;9.160;2023-12-29T04:06:14;3.60;;;2.70;;
3465;SDS011;1747;48.884;9.160;2023-12-29T04:08:41;4.13;;;3.08;;
3465;SDS011;1747;48.884;9.160;2023-12-29T04:11:08;3.95;;;2.83;;
3465;SDS011;1747;48.884;9.160;2023-12-29T04:13:35;7.20;;;2.70;;
3465;SDS011;1747;48.884;9.160;2023-12-29T04:16:02;4.50;;;2.55;;
3465;SDS011;1747;48.884;9.160;2023-12-29T04:18:29;3.70;;;2.88;;
3465;SDS011;1747;48.884;9.160;2023-12-29T04:20:56;8.65;;;2.78;;
3465;SDS011;1747;48.884;9.160;2023-12-29T04:23:24;6.05;;;2.63;;
3465;SDS011;1747;48.884;9.160;2023-12-29T04:25:51;5.32;;;2.60;;
3465;SDS011;1747;48.884;9.160;2023-12-29T04:28:17;2.85;;;2.35;;
3465;SDS011;1747;48.884;9.160;2023-12-29T04:30:44;3.42;;;2.63;;
3465;SDS011;1747;48.884;9.160;2023-12-29T04:33:11;4.22;;;2.63;;
3465;SDS011;1747;48.884;9.160;2023-12-29T04:35:38;3.15;;;2.22;;
3465;SDS011;1747;48.884;9.160;2023-12-29T04:38:05;3.42;;;2.60;;
3465;SDS011;1747;48.884;9.160;2023-12-29T04:40:33;3.63;;;2.50;;
3465;SDS011;1747;48.884;9.160;2023-12-29T04:43:00;3.25;;;2.70;;
3465;SDS011;1747;48.884;9.160;2023-12-29T04:45:26;3.28;;;2.03;;
3465;SDS011;1747;48.884;9.160;2023-12-29T04:47:54;3.25;;;2.58;;
3465;SDS011;1747;48.884;9.160;2023-12-29T04:50:20;5.82;;;2.95;;
3465;SDS011;1747;48.884;9.160;2023-12-29T04:52:47;2.97;;;2.40;;
3465;SDS011;1747;48.884;9.160;2023-12-29T04:55:14;4.90;;;2.22;;
3465;SDS011;1747;48.884;9.160;2023-12-29T04:57:43;3.58;;;2.55;;
3465;SDS011;1747;48.884;9.160;2023-12-29T05:00:10;3.35;;;2.30;;
3465;SDS011;1747;48.884;9.160;2023-12-29T05:02:38;3.42;;;2.42;;
3465;SDS011;1747;48.884;9.160;2023-12-29T05:05:05;3.00;;;2.30;;
3465;SDS011;1747;48.884;9.160;2023-12-29T05:07:32;3.22;;;2.17;;
3465;SDS011;1747;48.884;9.160;2023-12-29T05:09:58;3.25;;;2.38;;
3465;SDS011;1747;48.884;9.160;2023-12-29T05:12:25;3.83;;;2.30;;
3465;SDS011;1747;48.884;9.160;2023-12-29T05:14:53;5.13;;;2.25;;
3465;SDS011;1747;48.884;9.160;2023-12-29T05:17:20;2.40;;;1.98;;
3465;SDS011;1747;48.884;9.160;2023-12-29T05:19:47;3.65;;;1.80;;
3465;SDS011;1747;48.884;9.160;2023-12-29T05:22:13;2.78;;;2.20;;
3465;SDS011;1747;48.884;9.160;2023-12-29T05:24:42;2.58;;;2.30;;
3465;SDS011;1747;48.884;9.160;2023-12-29T05:27:10;3.08;;;2.38;;
3465;SDS011;1747;48.884;9.160;2023-12-29T05:29:37;3.80;;;2.47;;
3465;SDS011;1747;48.884;9.160;2023-12-29T05:32:05;3.55;;;2.42;;
3465;SDS011;1747;48.884;9.160;2023-12-29T05:34:33;5.82;;;2.03;;
3465;SDS011;1747;48.884;9.160;2023-12-29T05:37:00;5.10;;;2.03;;
3465;SDS011;1747;48.884;9.160;2023-12-29T05:39:27;2.80;;;2.10;;
3465;SDS011;1747;48.884;9.160;2023-12-29T05:41:54;3.33;;;2.22;;
3465;SDS011;1747;48.884;9.160;2023-12-29T05:44:21;3.95;;;2.28;;
3465;SDS011;1747;48.884;9.160;2023-12-29T05:46:47;3.40;;;2.15;;
3465;SDS011;1747;48.884;9.160;2023-12-29T05:49:16;3.45;;;2.33;;
3465;SDS011;1747;48.884;9.160;2023-12-29T05:51:43;4.95;;;2.30;;
3465;SDS011;1747;48.884;9.160;2023-12-29T05:54:10;5.07;;;2.08;;
3465;SDS011;1747;48.884;9.160;2023-12-29T05:56:37;2.67;;;2.20;;
3465;SDS011;1747;48.884;9.160;2023-12-29T05:59:04;4.05;;;2.20;;
3465;SDS011;1747;48.884;9.160;2023-12-29T06:01:30;3.58;;;2.05;;
3465;SDS011;1747;48.884;9.160;2023-12-29T06:03:57;3.38;;;2.53;;
3465;SDS011;1747;48.884;9.160;2023-12-29T06:06:26;4.63;;;2.20;;
3465;SDS011;1747;48.884;9.160;2023-12-29T06:08:52;4.55;;;2.22;;
3465;SDS011;1747;48.884;9.160;2023-12-29T06:11:20;3.85;;;2.28;;
3465;SDS011;1747;48.884;9.160;2023-12-29T06:13:46;4.03;;;2.20;;
3465;SDS011;1747;48.884;9.160;2023-12-29T06:16:17;4.25;;;2.85;;
3465;SDS011;1747;48.884;9.160;2023-12-29T06:18:44;4.05;;;2.30;;
3465;SDS011;1747;48.884;9.160;2023-12-29T06:21:11;2.55;;;2.10;;
3465;SDS011;1747;48.884;9.160;2023-12-29T06:23:39;5.82;;;2.50;;
3465;SDS011;1747;48.884;9.160;2023-12-29T06:26:13;4.57;;;2.28;;
3465;SDS011;1747;48.884;9.160;2023-12-29T06:28:40;3.78;;;2.47;;
3465;SDS011;1747;48.884;9.160;2023-12-29T06:31:07;3.20;;;2.40;;
3465;SDS011;1747;48.884;9.160;2023-12-29T06:33:34;3.25;;;2.22;;
3465;SDS011;1747;48.884;9.160;2023-12-29T06:36:01;4.70;;;2.78;;
3465;SDS011;1747;48.884;9.160;2023-12-29T06:38:28;4.45;;;2.35;;
3465;SDS011;1747;48.884;9.160;2023-12-29T06:40:56;4.53;;;2.00;;
3465;SDS011;1747;48.884;9.160;2023-12-29T06:43:23;2.80;;;2.10;;
3465;SDS011;1747;48.884;9.160;2023-12-29T06:45:50;2.47;;;1.95;;
3465;SDS011;1747;48.884;9.160;2023-12-29T06:48:17;3.70;;;2.30;;
3465;SDS011;1747;48.884;9.160;2023-12-29T06:50:44;3.38;;;2.25;;
3465;SDS011;1747;48.884;9.160;2023-12-29T06:53:11;2.70;;;2.20;;
3465;SDS011;1747;48.884;9.160;2023-12-29T06:55:38;2.47;;;1.90;;
3465;SDS011;1747;48.884;9.160;2023-12-29T06:58:06;2.45;;;1.80;;
3465;SDS011;1747;48.884;9.160;2023-12-29T07:00:33;4.35;;;1.90;;
3465;SDS011;1747;48.884;9.160;2023-12-29T07:03:00;4.28;;;2.10;;
3465;SDS011;1747;48.884;9.160;2023-12-29T07:05:27;5.07;;;2.20;;
3465;SDS011;1747;48.884;9.160;2023-12-29T07:07:54;2.85;;;2.03;;
3465;SDS011;1747;48.884;9.160;2023-12-29T07:10:21;2.47;;;1.95;;
3465;SDS011;1747;48.884;9.160;2023-12-29T07:12:48;2.85;;;1.90;;
3465;SDS011;1747;48.884;9.160;2023-12-29T07:15:16;2.75;;;1.98;;
3465;SDS011;1747;48.884;9.160;2023-12-29T07:17:43;2.53;;;1.95;;
3465;SDS011;1747;48.884;9.160;2023-12-29T07:20:11;2.50;;;1.67;;
3465;SDS011;1747;48.884;9.160;2023-12-29T07:22:38;2.67;;;1.98;;
3465;SDS011;1747;48.884;9.160;2023-12-29T07:25:05;2.38;;;1.70;;
3465;SDS011;1747;48.884;9.160;2023-12-29T07:27:32;2.83;;;1.77;;
3465;SDS011;1747;48.884;9.160;2023-12-29T07:29:59;2.45;;;1.95;;
3465;SDS011;1747;48.884;9.160;2023-12-29T07:32:27;2.17;;;1.85;;
3465;SDS011;1747;48.884;9.160;2023-12-29T07:34:54;4.13;;;1.70;;
3465;SDS011;1747;48.884;9.160;2023-12-29T07:37:21;2.08;;;1.80;;
3465;SDS011;1747;48.884;9.160;2023-12-29T07:39:48;2.35;;;1.90;;
3465;SDS011;1747;48.884;9.160;2023-12-29T07:42:14;2.10;;;1.60;;
3465;SDS011;1747;48.884;9.160;2023-12-29T07:44:42;2.22;;;1.52;;
3465;SDS011;1747;48.884;9.160;2023-12-29T07:47:09;2.25;;;1.60;;
3465;SDS011;1747;48.884;9.160;2023-12-29T07:49:38;2.95;;;1.38;;
3465;SDS011;1747;48.884;9.160;2023-12-29T07:52:07;2.42;;;1.30;;
3465;SDS011;1747;48.884;9.160;2023-12-29T07:54:34;3.28;;;1.50;;
3465;SDS011;1747;48.884;9.160;2023-12-29T07:57:00;2.30;;;1.33;;
3465;SDS011;1747;48.884;9.160;2023-12-29T07:59:27;1.95;;;1.50;;
3465;SDS011;1747;48.884;9.160;2023-12-29T08:01:54;2.30;;;1.80;;
3465;SDS011;1747;48.884;9.160;2023-12-29T08:04:22;1.42;;;1.30;;
3465;SDS011;1747;48.884;9.160;2023-12-29T08:06:51;1.80;;;1.33;;
3465;SDS011;1747;48.884;9.160;2023-12-29T08:09:17;2.30;;;1.67;;
3465;SDS011;1747;48.884;9.160;2023-12-29T08:11:45;2.05;;;1.35;;
3465;SDS011;1747;48.884;9.160;2023-12-29T08:14:11;2.10;;;1.60;;
3465;SDS011;1747;48.884;9.160;2023-12-29T08:16:38;2.97;;;1.30;;
3465;SDS011;1747;48.884;9.160;2023-12-29T08:19:06;2.42;;;1.63;;
3465;SDS011;1747;48.884;9.160;2023-12-29T08:21:33;1.58;;;1.30;;
3465;SDS011;1747;48.884;9.160;2023-12-29T08:24:01;3.42;;;1.60;;
3465;SDS011;1747;48.884;9.160;2023-12-29T08:26:28;2.58;;;1.45;;
3465;SDS011;1747;48.884;9.160;2023-12-29T08:28:55;2.80;;;1.55;;
3465;SDS011;1747;48.884;9.160;2023-12-29T08:31:22;2.17;;;1.60;;
3465;SDS011;1747;48.884;9.160;2023-12-29T08:33:49;2.00;;;1.60;;
3465;SDS011;1747;48.884;9.160;2023-12-29T08:36:17;1.80;;;1.48;;
3465;SDS011;1747;48.884;9.160;2023-12-29T08:38:46;2.38;;;1.73;;
3465;SDS011;1747;48.884;9.160;2023-12-29T08:41:16;1.98;;;1.33;;
3465;SDS011;1747;48.884;9.160;2023-12-29T08:43:43;1.73;;;1.40;;
3465;SDS011;1747;48.884;9.160;2023-12-29T08:46:10;2.67;;;1.65;;
3465;SDS011;1747;48.884;9.160;2023-12-29T08:48:37;2.15;;;1.50;;
3465;SDS011;1747;48.884;9.160;2023-12-29T08:51:04;2.35;;;1.48;;
3465;SDS011;1747;48.884;9.160;2023-12-29T08:53:31;2.08;;;1.60;;
3465;SDS011;1747;48.884;9.160;2023-12-29T08:56:00;2.92;;;1.70;;
3465;SDS011;1747;48.884;9.160;2023-12-29T08:58:28;1.63;;;1.50;;
3465;SDS011;1747;48.884;9.160;2023-12-29T09:00:56;1.85;;;1.45;;
3465;SDS011;1747;48.884;9.160;2023-12-29T09:03:22;2.63;;;1.60;;
3465;SDS011;1747;48.884;9.160;2023-12-29T09:05:49;7.47;;;1.58;;
3465;SDS011;1747;48.884;9.160;2023-12-29T09:08:16;3.03;;;1.50;;
3465;SDS011;1747;48.884;9.160;2023-12-29T09:10:43;4.30;;;1.63;;
3465;SDS011;1747;48.884;9.160;2023-12-29T09:13:10;2.45;;;1.80;;
3465;SDS011;1747;48.884;9.160;2023-12-29T09:15:45;2.15;;;1.80;;
3465;SDS011;1747;48.884;9.160;2023-12-29T09:18:11;1.95;;;1.70;;
3465;SDS011;1747;48.884;9.160;2023-12-29T09:20:38;3.45;;;1.88;;
3465;SDS011;1747;48.884;9.160;2023-12-29T09:23:05;2.50;;;1.88;;
3465;SDS011;1747;48.884;9.160;2023-12-29T09:25:32;1.73;;;1.52;;
3465;SDS011;1747;48.884;9.160;2023-12-29T09:27:59;2.67;;;1.73;;
3465;SDS011;1747;48.884;9.160;2023-12-29T09:30:26;1.98;;;1.60;;
3465;SDS011;1747;48.884;9.160;2023-12-29T09:32:54;2.90;;;2.08;;
3465;SDS011;1747;48.884;9.160;2023-12-29T09:35:20;2.00;;;1.80;;
3465;SDS011;1747;48.884;9.160;2023-12-29T09:37:47;1.80;;;1.60;;
3465;SDS011;1747;48.884;9.160;2023-12-29T09:40:14;2.72;;;1.75;;
3465;SDS011;1747;48.884;9.160;2023-12-29T09:42:42;2.55;;;1.73;;
3465;SDS011;1747;48.884;9.160;2023-12-29T09:45:11;3.65;;;1.70;;
3465;SDS011;1747;48.884;9.160;2023-12-29T09:47:39;3.70;;;1.70;;
3465;SDS011;1747;48.884;9.160;2023-12-29T09:50:09;2.55;;;1.60;;
3465;SDS011;1747;48.884;9.160;2023-12-29T09:52:37;2.05;;;1.55;;
3465;SDS011;1747;48.884;9.160;2023-12-29T09:55:07;1.77;;;1.48;;
3465;SDS011;1747;48.884;9.160;2023-12-29T09:57:36;2.85;;;1.40;;
3465;SDS011;1747;48.884;9.160;2023-12-29T10:00:04;2.13;;;1.50;;
3465;SDS011;1747;48.884;9.160;2023-12-29T10:02:32;2.17;;;1.83;;
3465;SDS011;1747;48.884;9.160;2023-12-29T10:05:01;2.10;;;1.33;;
3465;SDS011;1747;48.884;9.160;2023-12-29T10:07:32;1.67;;;1.58;;
3465;SDS011;1747;48.884;9.160;2023-12-29T10:10:02;1.75;;;1.20;;
3465;SDS011;1747;48.884;9.160;2023-12-29T10:12:31;1.33;;;1.13;;
3465;SDS011;1747;48.884;9.160;2023-12-29T10:15:02;1.88;;;1.60;;
3465;SDS011;1747;48.884;9.160;2023-12-29T10:17:35;2.15;;;1.40;;
3465;SDS011;1747;48.884;9.160;2023-12-29T10:20:11;2.08;;;1.30;;
3465;SDS011;1747;48.884;9.160;2023-12-29T10:22:50;2.70;;;1.42;;
3465;SDS011;1747;48.884;9.160;2023-12-29T10:25:20;1.42;;;1.30;;
3465;SDS011;1747;48.884;9.160;2023-12-29T10:27:49;1.73;;;1.20;;
3465;SDS011;1747;48.884;9.160;2023-12-29T10:30:18;1.88;;;1.38;;
3465;SDS011;1747;48.884;9.160;2023-12-29T10:32:48;1.27;;;1.17;;
3465;SDS011;1747;48.884;9.160;2023-12-29T10:35:16;1.25;;;1.15;;
3465;SDS011;1747;48.884;9.160;2023-12-29T10:37:43;1.95;;;1.40;;
3465;SDS011;1747;48.884;9.160;2023-12-29T10:40:12;2.63;;;1.15;;
3465;SDS011;1747;48.884;9.160;2023-12-29T10:42:51;1.13;;;1.00;;
3465;SDS011;1747;48.884;9.160;2023-12-29T10:45:18;1.35;;;1.15;;
3465;SDS011;1747;48.884;9.160;2023-12-29T10:47:45;1.50;;;1.40;;
3465;SDS011;1747;48.884;9.160;2023-12-29T10:50:12;2.35;;;1.58;;
3465;SDS011;1747;48.884;9.160;2023-12-29T10:52:38;2.65;;;1.08;;
3465;SDS011;1747;48.884;9.160;2023-12-29T10:55:07;1.35;;;1.02;;
3465;SDS011;1747;48.884;9.160;2023-12-29T10:57:37;1.30;;;1.15;;
3465;SDS011;1747;48.884;9.160;2023-12-29T11:00:05;0.80;;;0.80;;
3465;SDS011;1747;48.884;9.160;2023-12-29T11:02:33;1.25;;;1.02;;
3465;SDS011;1747;48.884;9.160;2023-12-29T11:05:04;1.10;;;1.00;;
3465;SDS011;1747;48.884;9.160;2023-12-29T11:07:33;1.33;;;0.98;;
3465;SDS011;1747;48.884;9.160;2023-12-29T11:10:03;1.48;;;1.05;;
3465;SDS011;1747;48.884;9.160;2023-12-29T11:12:32;1.95;;;1.10;;
3465;SDS011;1747;48.884;9.160;2023-12-29T11:15:01;1.02;;;0.82;;
3465;SDS011;1747;48.884;9.160;2023-12-29T11:17:29;1.13;;;0.88;;
3465;SDS011;1747;48.884;9.160;2023-12-29T11:19:58;0.90;;;0.80;;
3465;SDS011;1747;48.884;9.160;2023-12-29T11:22:27;1.25;;;0.70;;
3465;SDS011;1747;48.884;9.160;2023-12-29T11:24:55;1.13;;;0.90;;
3465;SDS011;1747;48.884;9.160;2023-12-29T11:27:25;2.05;;;0.70;;
3465;SDS011;1747;48.884;9.160;2023-12-29T11:29:55;0.70;;;0.70;;
3465;SDS011;1747;48.884;9.160;2023-12-29T11:32:24;0.80;;;0.80;;
3465;SDS011;1747;48.884;9.160;2023-12-29T11:35:15;1.02;;;0.60;;
3465;SDS011;1747;48.884;9.160;2023-12-29T11:37:58;0.77;;;0.63;;
3465;SDS011;1747;48.884;9.160;2023-12-29T11:40:33;1.02;;;0.63;;
3465;SDS011;1747;48.884;9.160;2023-12-29T11:43:08;1.02;;;0.80;;
3465;SDS011;1747;48.884;9.160;2023-12-29T11:45:38;0.80;;;0.60;;
3465;SDS011;1747;48.884;9.160;2023-12-29T11:48:07;0.98;;;0.60;;
3465;SDS011;1747;48.884;9.160;2023-12-29T11:50:34;1.45;;;0.75;;
3465;SDS011;1747;48.884;9.160;2023-12-29T11:53:04;0.70;;;0.70;;
3465;SDS011;1747;48.884;9.160;2023-12-29T11:55:33;0.85;;;0.68;;
3465;SDS011;1747;48.884;9.160;2023-12-29T11:58:01;2.88;;;0.65;;
3465;SDS011;1747;48.884;9.160;2023-12-29T12:00:42;0.63;;;0.60;;
3465;SDS011;1747;48.884;9.160;2023-12-29T12:03:16;0.60;;;0.60;;
3465;SDS011;1747;48.884;9.160;2023-12-29T12:05:45;0.93;;;0.60;;
3465;SDS011;1747;48.884;9.160;2023-12-29T12:08:26;0.80;;;0.80;;
3465;SDS011;1747;48.884;9.160;2023-12-29T12:10:54;0.77;;;0.70;;
3465;SDS011;1747;48.884;9.160;2023-12-29T12:16:09;0.60;;;0.60;;
3465;SDS011;1747;48.884;9.160;2023-12-29T12:19:07;1.95;;;0.77;;
3465;SDS011;1747;48.884;9.160;2023-12-29T12:21:34;0.50;;;0.50;;
3465;SDS011;1747;48.884;9.160;2023-12-29T12:24:03;0.95;;;0.85;;
3465;SDS011;1747;48.884;9.160;2023-12-29T12:26:31;1.13;;;0.68;;
3465;SDS011;1747;48.884;9.160;2023-12-29T12:28:58;2.53;;;0.60;;
3465;SDS011;1747;48.884;9.160;2023-12-29T12:31:25;0.60;;;0.60;;
3465;SDS011;1747;48.884;9.160;2023-12-29T12:33:53;0.85;;;0.80;;
3465;SDS011;1747;48.884;9.160;2023-12-29T12:36:22;1.17;;;0.82;;
3465;SDS011;1747;48.884;9.160;2023-12-29T12:38:50;0.80;;;0.80;;
3465;SDS011;1747;48.884;9.160;2023-12-29T12:41:18;1.45;;;0.68;;
3465;SDS011;1747;48.884;9.160;2023-12-29T12:43:45;1.08;;;0.70;;
3465;SDS011;1747;48.884;9.160;2023-12-29T12:46:20;0.70;;;0.70;;
3465;SDS011;1747;48.884;9.160;2023-12-29T12:48:50;1.00;;;0.70;;
3465;SDS011;1747;48.884;9.160;2023-12-29T12:51:18;0.70;;;0.70;;
3465;SDS011;1747;48.884;9.160;2023-12-29T12:53:47;1.33;;;0.82;;
3465;SDS011;1747;48.884;9.160;2023-12-29T12:56:15;0.90;;;0.73;;
3465;SDS011;1747;48.884;9.160;2023-12-29T12:58:44;0.73;;;0.70;;
3465;SDS011;1747;48.884;9.160;2023-12-29T13:01:11;0.68;;;0.68;;
3465;SDS011;1747;48.884;9.160;2023-12-29T13:03:38;1.00;;;0.82;;
3465;SDS011;1747;48.884;9.160;2023-12-29T13:06:06;1.42;;;0.80;;
3465;SDS011;1747;48.884;9.160;2023-12-29T13:08:33;2.45;;;1.00;;
3465;SDS011;1747;48.884;9.160;2023-12-29T13:11:02;0.93;;;0.70;;
3465;SDS011;1747;48.884;9.160;2023-12-29T13:13:36;0.70;;;0.70;;
3465;SDS011;1747;48.884;9.160;2023-12-29T13:16:03;1.83;;;0.90;;
3465;SDS011;1747;48.884;9.160;2023-12-29T13:18:30;2.17;;;0.98;;
3465;SDS011;1747;48.884;9.160;2023-12-29T13:20:59;0.93;;;0.80;;
3465;SDS011;1747;48.884;9.160;2023-12-29T13:23:27;1.00;;;0.90;;
3465;SDS011;1747;48.884;9.160;2023-12-29T13:25:55;0.98;;;0.85;;
3465;SDS011;1747;48.884;9.160;2023-12-29T13:28:25;1.30;;;0.77;;
3465;SDS011;1747;48.884;9.160;2023-12-29T13:30:53;1.38;;;0.70;;
3465;SDS011;1747;48.884;9.160;2023-12-29T13:33:24;0.85;;;0.85;;
3465;SDS011;1747;48.884;9.160;2023-12-29T13:35:57;1.10;;;0.90;;
3465;SDS011;1747;48.884;9.160;2023-12-29T13:38:33;1.42;;;1.00;;
3465;SDS011;1747;48.884;9.160;2023-12-29T13:41:09;1.52;;;1.17;;
3465;SDS011;1747;48.884;9.160;2023-12-29T13:43:41;1.80;;;0.80;;
3465;SDS011;1747;48.884;9.160;2023-12-29T13:46:11;1.35;;;0.90;;
3465;SDS011;1747;48.884;9.160;2023-12-29T13:48:38;1.20;;;0.90;;
3465;SDS011;1747;48.884;9.160;2023-12-29T13:51:07;2.17;;;0.88;;
3465;SDS011;1747;48.884;9.160;2023-12-29T13:53:34;0.82;;;0.77;;
3465;SDS011;1747;48.884;9.160;2023-12-29T13:56:07;1.50;;;0.80;;
3465;SDS011;1747;48.884;9.160;2023-12-29T13:58:35;1.23;;;1.10;;
3465;SDS011;1747;48.884;9.160;2023-12-29T14:01:06;1.02;;;0.93;;
3465;SDS011;1747;48.884;9.160;2023-12-29T14:03:37;1.00;;;0.90;;
3465;SDS011;1747;48.884;9.160;2023-12-29T14:06:11;3.17;;;0.80;;
3465;SDS011;1747;48.884;9.160;2023-12-29T14:08:45;1.00;;;0.90;;
3465;SDS011;1747;48.884;9.160;2023-12-29T14:11:12;3.70;;;0.85;;
3465;SDS011;1747;48.884;9.160;2023-12-29T14:13:40;1.05;;;0.80;;
3465;SDS011;1747;48.884;9.160;2023-12-29T14:16:08;1.05;;;0.88;;
3465;SDS011;1747;48.884;9.160;2023-12-29T14:18:42;0.80;;;0.70;;
3465;SDS011;1747;48.884;9.160;2023-12-29T14:21:21;3.83;;;1.10;;
3465;SDS011;1747;48.884;9.160;2023-12-29T14:23:59;1.23;;;0.70;;
3465;SDS011;1747;48.884;9.160;2023-12-29T14:26:27;2.35;;;0.95;;
3465;SDS011;1747;48.884;9.160;2023-12-29T14:29:04;1.10;;;0.82;;
3465;SDS011;1747;48.884;9.160;2023-12-29T14:31:34;1.40;;;0.90;;
3465;SDS011;1747;48.884;9.160;2023-12-29T14:34:02;0.98;;;0.90;;
3465;SDS011;1747;48.884;9.160;2023-12-29T14:36:29;1.20;;;1.10;;
3465;SDS011;1747;48.884;9.160;2023-12-29T14:38:56;1.15;;;0.90;;
3465;SDS011;1747;48.884;9.160;2023-12-29T14:41:23;1.25;;;1.08;;
3465;SDS011;1747;48.884;9.160;2023-12-29T14:43:50;1.60;;;0.80;;
3465;SDS011;1747;48.884;9.160;2023-12-29T14:46:17;1.60;;;1.10;;
3465;SDS011;1747;48.884;9.160;2023-12-29T14:48:45;2.30;;;1.10;;
3465;SDS011;1747;48.884;9.160;2023-12-29T14:51:12;3.00;;;1.20;;
3465;SDS011;1747;48.884;9.160;2023-12-29T14:53:39;1.05;;;0.88;;
3465;SDS011;1747;48.884;9.160;2023-12-29T14:56:09;3.40;;;0.90;;
3465;SDS011;1747;48.884;9.160;2023-12-29T14:58:35;1.10;;;1.00;;
3465;SDS011;1747;48.884;9.160;2023-12-29T15:01:02;1.10;;;0.90;;
3465;SDS011;1747;48.884;9.160;2023-12-29T15:03:29;1.10;;;0.70;;
3465;SDS011;1747;48.884;9.160;2023-12-29T15:05:58;2.25;;;1.35;;
3465;SDS011;1747;48.884;9.160;2023-12-29T15:08:25;0.70;;;0.70;;
3465;SDS011;1747;48.884;9.160;2023-12-29T15:10:57;2.25;;;0.80;;
3465;SDS011;1747;48.884;9.160;2023-12-29T15:13:24;1.00;;;0.90;;
3465;SDS011;1747;48.884;9.160;2023-12-29T15:15:52;2.03;;;1.00;;
3465;SDS011;1747;48.884;9.160;2023-12-29T15:18:19;2.22;;;1.00;;
3465;SDS011;1747;48.884;9.160;2023-12-29T15:20:45;1.40;;;1.00;;
3465;SDS011;1747;48.884;9.160;2023-12-29T15:23:14;1.23;;;0.82;;